PWSweather.com
Personal Weather Stations
Station Observations
MARICOPA
Cobblestone Farms, Maricopa, AZ 85139

Cobblestone FarmsMaricopa, AZ 85139

Lat: 33.076, Lon: -112.0445

Elevation: 1148

Station Type: LaCrosse 2310/15

http://weather.azkiwis.net

Latest ConditionsUpdated 12:15:10 PM MST Sunday, Jul 5, 2015
Currently Today's Max Today's Min Today's Average
Temperature 104.2°F40.1°C 104.2°F40.1°C 86.2°F30.1°C 90.7°F32.6°C
Dew Point 62.5°F16.9°C 63.5°F17.5°C 55.6°F13.1°C 58.7°F14.8°C
Winds Calm Calm 2.8 mph WSW4.5 kmh WSW - 0.2 mph 0.3 kmh
Wind Gusts -- 6.7 mph10.8 kmh - -
Humidity 26% 42% 26% 35%
Pressure 29.90 in1012.5 mb 29.94 in1013.9 mb 29.81 in1009.5 mb -
Hour Temp Dew Point Humidity Winds Wind Gusts Pressure Precip Precip Rate Daily Precip Total
12:15 PM 104.2°F40.1°C 62.5°F16.9°C 26% Calm Calm -- 29.90 in1012.5 mb - 0.00 in0.0 mm 0.00 in0.0 mm
12:00 PM 102.7°F39.3°C 62.3°F16.8°C 27% 0.6 mph SW1.0 kmh SW 4.7 mph7.6 kmh 29.92 in1013.2 mb - 0.00 in0.0 mm 0.00 in0.0 mm
11:45 AM 101.8°F38.8°C 60.5°F15.8°C 26% 0.1 mph NW0.2 kmh NW -- 29.93 in1013.5 mb - 0.00 in0.0 mm 0.00 in0.0 mm
11:30 AM 101.3°F38.5°C 61.1°F16.2°C 27% Calm Calm -- 29.93 in1013.5 mb - 0.00 in0.0 mm 0.00 in0.0 mm
11:15 AM 100.6°F38.1°C 63.5°F17.5°C 30% 0.3 mph SW0.5 kmh SW -- 29.94 in1013.9 mb - 0.00 in0.0 mm 0.00 in0.0 mm
11:00 AM 99.6°F37.6°C 61.7°F16.5°C 29% Calm Calm 0.7 mph1.1 kmh 29.93 in1013.5 mb - 0.00 in0.0 mm 0.00 in0.0 mm
10:45 AM 99.1°F37.3°C 61.3°F16.3°C 29% Calm Calm 6.7 mph10.8 kmh 29.93 in1013.5 mb - 0.00 in0.0 mm 0.00 in0.0 mm
10:30 AM 97.3°F36.3°C 63.4°F17.4°C 33% 0.1 mph ESE0.2 kmh ESE 0.7 mph1.1 kmh 29.93 in1013.5 mb - 0.00 in0.0 mm 0.00 in0.0 mm
10:15 AM 95.7°F35.4°C 62.9°F17.2°C 34% 0.3 mph SW0.5 kmh SW 4.0 mph6.4 kmh 29.93 in1013.5 mb - 0.00 in0.0 mm 0.00 in0.0 mm
10:00 AM 94.5°F34.7°C 61.8°F16.6°C 34% Calm Calm -- 29.93 in1013.5 mb - 0.00 in0.0 mm 0.00 in0.0 mm
09:45 AM 93.1°F33.9°C 61.4°F16.3°C 35% 2.0 mph SSW3.2 kmh SSW 4.5 mph7.2 kmh 29.93 in1013.5 mb - 0.00 in0.0 mm 0.00 in0.0 mm
09:30 AM 90.9°F32.7°C 61.8°F16.6°C 38% 1.2 mph S1.9 kmh S -- 29.93 in1013.5 mb - 0.00 in0.0 mm 0.00 in0.0 mm
09:15 AM 89.4°F31.9°C 60.5°F15.8°C 38% Calm Calm -- 29.93 in1013.5 mb - 0.00 in0.0 mm 0.00 in0.0 mm
09:00 AM 89.1°F31.7°C 60.9°F16.1°C 39% 0.7 mph WSW1.1 kmh WSW 1.1 mph1.8 kmh 29.93 in1013.5 mb - 0.00 in0.0 mm 0.00 in0.0 mm
08:45 AM 88.8°F31.6°C 60.6°F15.9°C 39% Calm Calm -- 29.93 in1013.5 mb - 0.00 in0.0 mm 0.00 in0.0 mm
08:30 AM 88.5°F31.4°C 61.8°F16.6°C 41% Calm Calm -- 29.92 in1013.2 mb - 0.00 in0.0 mm 0.00 in0.0 mm
08:15 AM 88.2°F31.2°C 61.6°F16.4°C 41% Calm Calm -- 29.92 in1013.2 mb - 0.00 in0.0 mm 0.00 in0.0 mm
08:00 AM 88.0°F31.1°C 61.3°F16.3°C 41% 0.1 mph WSW0.2 kmh WSW -- 29.92 in1013.2 mb - 0.00 in0.0 mm 0.00 in0.0 mm
07:45 AM 87.4°F30.8°C 61.5°F16.4°C 42% Calm Calm -- 29.92 in1013.2 mb - 0.00 in0.0 mm 0.00 in0.0 mm
07:30 AM 86.9°F30.5°C 61.0°F16.1°C 42% Calm Calm -- 29.91 in1012.9 mb - 0.00 in0.0 mm 0.00 in0.0 mm
07:15 AM 86.5°F30.3°C 60.0°F15.6°C 41% Calm Calm -- 29.91 in1012.9 mb - 0.00 in0.0 mm 0.00 in0.0 mm
07:00 AM 86.4°F30.2°C 59.9°F15.5°C 41% Calm Calm -- 29.90 in1012.5 mb - 0.00 in0.0 mm 0.00 in0.0 mm
06:45 AM 86.4°F30.2°C 59.2°F15.1°C 40% Calm Calm -- 29.89 in1012.2 mb - 0.00 in0.0 mm 0.00 in0.0 mm
06:30 AM 86.3°F30.2°C 58.4°F14.7°C 39% Calm Calm -- 29.89 in1012.2 mb - 0.00 in0.0 mm 0.00 in0.0 mm
06:15 AM 86.2°F30.1°C 57.6°F14.2°C 38% Calm Calm -- 29.89 in1012.2 mb - 0.00 in0.0 mm 0.00 in0.0 mm
06:00 AM 86.2°F30.1°C 56.9°F13.8°C 37% Calm Calm -- 29.88 in1011.9 mb - 0.00 in0.0 mm 0.00 in0.0 mm
05:45 AM 86.5°F30.3°C 57.2°F14.0°C 37% Calm Calm -- 29.87 in1011.5 mb - 0.00 in0.0 mm 0.00 in0.0 mm
05:30 AM 86.7°F30.4°C 56.6°F13.7°C 36% Calm Calm -- 29.87 in1011.5 mb - 0.00 in0.0 mm 0.00 in0.0 mm
05:15 AM 87.1°F30.6°C 56.9°F13.8°C 36% Calm Calm -- 29.86 in1011.2 mb - 0.00 in0.0 mm 0.00 in0.0 mm
05:00 AM 87.3°F30.7°C 56.3°F13.5°C 35% Calm Calm -- 29.86 in1011.2 mb - 0.00 in0.0 mm 0.00 in0.0 mm
04:45 AM 87.4°F30.8°C 55.6°F13.1°C 34% 0.2 mph WNW0.3 kmh WNW 2.0 mph3.2 kmh 29.85 in1010.8 mb - 0.00 in0.0 mm 0.00 in0.0 mm
04:30 AM 87.6°F30.9°C 55.8°F13.2°C 34% 0.2 mph WSW0.3 kmh WSW -- 29.84 in1010.5 mb - 0.00 in0.0 mm 0.00 in0.0 mm
04:15 AM 87.6°F30.9°C 55.8°F13.2°C 34% 2.8 mph WSW4.5 kmh WSW 4.5 mph7.2 kmh 29.84 in1010.5 mb - 0.00 in0.0 mm 0.00 in0.0 mm
04:00 AM 87.8°F31.0°C 55.9°F13.3°C 34% 0.4 mph SW0.6 kmh SW -- 29.83 in1010.2 mb - 0.00 in0.0 mm 0.00 in0.0 mm
03:45 AM 88.0°F31.1°C 56.1°F13.4°C 34% Calm Calm -- 29.83 in1010.2 mb - 0.00 in0.0 mm 0.00 in0.0 mm
03:30 AM 88.2°F31.2°C 56.3°F13.5°C 34% Calm Calm -- 29.83 in1010.2 mb - 0.00 in0.0 mm 0.00 in0.0 mm
03:15 AM 88.5°F31.4°C 55.7°F13.2°C 33% Calm Calm -- 29.82 in1009.8 mb - 0.00 in0.0 mm 0.00 in0.0 mm
03:00 AM 89.1°F31.7°C 56.2°F13.4°C 33% Calm Calm -- 29.81 in1009.5 mb - 0.00 in0.0 mm 0.00 in0.0 mm
02:45 AM 89.6°F32.0°C 56.7°F13.7°C 33% 0.1 mph W0.2 kmh W 2.5 mph4.0 kmh 29.82 in1009.8 mb - 0.00 in0.0 mm 0.00 in0.0 mm
02:30 AM 90.2°F32.3°C 56.3°F13.5°C 32% Calm Calm -- 29.82 in1009.8 mb - 0.00 in0.0 mm 0.00 in0.0 mm
02:15 AM 90.3°F32.4°C 56.5°F13.6°C 32% Calm Calm -- 29.82 in1009.8 mb - 0.00 in0.0 mm 0.00 in0.0 mm
02:00 AM 90.1°F32.3°C 56.3°F13.5°C 32% 0.3 mph NW0.5 kmh NW 2.5 mph4.0 kmh 29.82 in1009.8 mb - 0.00 in0.0 mm 0.00 in0.0 mm
01:45 AM 89.8°F32.1°C 56.0°F13.3°C 32% 0.5 mph NW0.8 kmh NW 2.0 mph3.2 kmh 29.82 in1009.8 mb - 0.00 in0.0 mm 0.00 in0.0 mm
01:30 AM 89.2°F31.8°C 56.4°F13.6°C 33% 0.1 mph WNW0.2 kmh WNW -- 29.81 in1009.5 mb - 0.00 in0.0 mm 0.00 in0.0 mm
01:15 AM 89.3°F31.8°C 56.4°F13.6°C 33% Calm Calm -- 29.81 in1009.5 mb - 0.00 in0.0 mm 0.00 in0.0 mm
01:00 AM 89.4°F31.9°C 56.5°F13.6°C 33% 1.1 mph W1.8 kmh W 4.0 mph6.4 kmh 29.82 in1009.8 mb - 0.00 in0.0 mm 0.00 in0.0 mm
12:45 AM 89.4°F31.9°C 56.5°F13.6°C 33% Calm Calm 2.7 mph4.3 kmh 29.81 in1009.5 mb - 0.00 in0.0 mm 0.00 in0.0 mm
12:30 AM 89.6°F32.0°C 56.7°F13.7°C 33% 0.4 mph W0.6 kmh W 3.4 mph5.5 kmh 29.82 in1009.8 mb - 0.00 in0.0 mm 0.00 in0.0 mm
12:15 AM 90.0°F32.2°C 56.1°F13.4°C 32% Calm Calm -- 29.81 in1009.5 mb - 0.00 in0.0 mm 0.00 in0.0 mm
12:00 AM 90.3°F32.4°C 56.5°F13.6°C 32% 0.3 mph W0.5 kmh W -- 29.81 in1009.5 mb - 0.00 in0.0 mm 0.00 in0.0 mm